»·PEaware :: UAL6218 KSAN-KLAX

UAL6218 :: KSAN-KLAX

FLIGHT INFORMATION

Flight Status: Arrived
Operator:
United Airlines
More flights by this operator :: More flights under this callsign
Pilot: Anonymous A. (29301)
Aircraft: AIRBUS A320
(A320)
More flights by this aircraft type
Origin: KSAN San Diego Intl-Lindbergh
United States
Destination: KLAX Los Angeles Intl
United States
More flights between these airports :: More routes between these airports
Route: CWARD2 SLI
File this flight plan on PilotEdge
Remarks:
Altitude:
(Current/Filed)
14,000ft
Speed:
(Current/Filed)
250kts
Departed: 28-Apr-20 02:25 PM
Arrived: 28-Apr-20 02:54 PM
Distance/Time
Traveled:
94nm/0:29
Distance/Time
To Go:
Arrived

Flight Plot

Page will automatically refresh every two minutes.

Flight plan parsing failed; only flown route is shown


Map Options




Map Legend


Flown Route
Filed Route
Departure Airport
Arrival Airport
Navaid (VOR, NDB)
Fix

Horizontal Profiles

Position Reports

Time Latitude Longitude Heading Altitude Ground
Speed
28-Apr-20 14:08 32.733837 -117.198134 206 22ft 0kts
28-Apr-20 14:09 32.733837 -117.198134 206 22ft 0kts
28-Apr-20 14:10 32.733837 -117.198134 206 22ft 0kts
28-Apr-20 14:11 32.733837 -117.198134 206 22ft 0kts
28-Apr-20 14:12 32.733837 -117.198134 206 22ft 0kts
28-Apr-20 14:13 32.733837 -117.198133 206 22ft 0kts
28-Apr-20 14:14 32.734272 -117.197951 172 22ft 2kts
28-Apr-20 14:15 32.734622 -117.198315 103 22ft 1kts
28-Apr-20 14:16 32.734627 -117.198340 105 21ft 0kts
28-Apr-20 14:17 32.734621 -117.198313 105 21ft 1kts
28-Apr-20 14:18 32.734270 -117.196887 106 22ft 8kts
28-Apr-20 14:19 32.733326 -117.193000 105 23ft 16kts
28-Apr-20 14:20 32.731730 -117.186418 106 23ft 23kts
28-Apr-20 14:21 32.729784 -117.178377 105 24ft 22kts
28-Apr-20 14:22 32.729528 -117.176623 68 24ft 0kts
28-Apr-20 14:23 32.729807 -117.175921 50 25ft 5kts
28-Apr-20 14:24 32.732402 -117.184952 285 23ft 138kts
28-Apr-20 14:25 32.756380 -117.245851 307 3092ft 251kts
28-Apr-20 14:26 32.799311 -117.318779 307 5899ft 278kts
28-Apr-20 14:27 32.846116 -117.390721 307 5969ft 266kts
28-Apr-20 14:28 32.891617 -117.461225 308 7330ft 274kts
28-Apr-20 14:29 32.938600 -117.534251 309 9942ft 282kts
28-Apr-20 14:30 32.986585 -117.609041 309 9977ft 286kts
28-Apr-20 14:31 33.034994 -117.684670 308 9978ft 287kts
28-Apr-20 14:32 33.088647 -117.754751 320 9977ft 286kts
28-Apr-20 14:33 33.148387 -117.815537 320 9978ft 287kts
28-Apr-20 14:34 33.213361 -117.866829 348 9984ft 286kts
28-Apr-20 14:35 33.291368 -117.886136 348 9983ft 285kts
28-Apr-20 14:36 33.369000 -117.905503 348 9976ft 286kts
28-Apr-20 14:37 33.445248 -117.931490 343 9532ft 283kts
28-Apr-20 14:38 33.521411 -117.959172 343 7085ft 271kts
28-Apr-20 14:39 33.594501 -117.985797 343 6970ft 274kts
28-Apr-20 14:40 33.667329 -118.012354 343 6967ft 273kts
28-Apr-20 14:41 33.740000 -118.038905 343 6967ft 273kts
28-Apr-20 14:42 33.812798 -118.064903 351 6941ft 274kts
28-Apr-20 14:43 33.885563 -118.076413 352 6030ft 254kts
28-Apr-20 14:44 33.953927 -118.087238 352 4814ft 240kts
28-Apr-20 14:45 34.012845 -118.107700 299 3638ft 208kts
28-Apr-20 14:46 33.998768 -118.156638 232 3617ft 138kts
28-Apr-20 14:47 33.974592 -118.193835 232 2355ft 142kts
28-Apr-20 14:48 33.955815 -118.231864 243 2005ft 129kts
28-Apr-20 14:49 33.948289 -118.274354 263 1933ft 131kts
28-Apr-20 14:50 33.944043 -118.317619 262 1213ft 129kts
28-Apr-20 14:51 33.939696 -118.360327 262 530ft 128kts
28-Apr-20 14:52 33.935749 -118.398509 263 117ft 59kts
28-Apr-20 14:53 33.936248 -118.404389 265 125ft 10kts
28-Apr-20 14:54 33.935879 -118.408116 263 128ft 6kts
28-Apr-20 14:55 33.937890 -118.408676 78 128ft 12kts
28-Apr-20 14:56 33.938400 -118.403661 82 124ft 14kts
28-Apr-20 14:57 33.938979 -118.398181 64 116ft 8kts
28-Apr-20 14:58 33.940720 -118.398447 312 117ft 2kts
28-Apr-20 14:59 33.941051 -118.398975 306 118ft 0kts

Navigation Log

Ident Type
Flight plan parsing failed, navigation log unavailable